createdAt,value
2023-01-25T00:01:09.729Z,9.83
2023-01-25T00:03:41.363Z,9.33
2023-01-25T00:06:11.651Z,9.40
2023-01-25T00:08:41.028Z,8.57
2023-01-25T00:11:10.099Z,8.63
2023-01-25T00:13:41.651Z,9.00
2023-01-25T00:16:09.123Z,8.67
2023-01-25T00:18:38.728Z,10.77
2023-01-25T00:21:21.089Z,9.43
2023-01-25T00:23:51.550Z,8.40
2023-01-25T00:26:19.826Z,9.47
2023-01-25T00:28:51.632Z,9.00
2023-01-25T00:31:32.186Z,8.90
2023-01-25T00:34:24.871Z,8.83
2023-01-25T00:37:22.939Z,9.87
2023-01-25T00:39:50.135Z,8.73
2023-01-25T00:42:19.849Z,9.13
2023-01-25T00:44:49.513Z,9.60
2023-01-25T00:47:21.104Z,7.93
2023-01-25T00:49:48.163Z,8.30
2023-01-25T00:52:20.731Z,9.80
2023-01-25T00:54:50.404Z,8.73
2023-01-25T00:57:17.246Z,7.67
2023-01-25T00:59:44.664Z,9.53
2023-01-25T01:02:15.034Z,9.57
2023-01-25T01:04:46.924Z,8.63
2023-01-25T01:07:17.655Z,10.27
2023-01-25T01:09:47.703Z,9.40
2023-01-25T01:12:16.664Z,9.40
2023-01-25T01:14:50.689Z,8.57
2023-01-25T01:17:19.767Z,8.40
2023-01-25T01:19:49.885Z,8.37
2023-01-25T01:22:19.353Z,8.70
2023-01-25T01:24:49.507Z,8.33
2023-01-25T01:27:18.366Z,9.17
2023-01-25T01:29:47.898Z,8.77
2023-01-25T01:32:14.830Z,9.63
2023-01-25T01:34:41.890Z,9.73
2023-01-25T01:37:11.861Z,8.30
2023-01-25T01:39:41.971Z,8.80
2023-01-25T01:42:11.289Z,8.97
2023-01-25T01:44:59.338Z,8.73
2023-01-25T01:47:40.241Z,7.07
2023-01-25T01:50:21.136Z,8.50
2023-01-25T01:52:50.326Z,8.80
2023-01-25T01:55:24.840Z,8.63
2023-01-25T01:57:59.378Z,8.40
2023-01-25T10:08:30.875Z,11.07
2023-01-25T10:11:16.749Z,10.67
2023-01-25T10:13:44.893Z,10.50
2023-01-25T10:16:27.418Z,9.60
2023-01-25T10:19:34.537Z,10.30
2023-01-25T21:06:52.688Z,9.10
2023-01-25T21:09:26.074Z,10.27
2023-01-25T21:11:55.008Z,10.53
2023-01-25T21:14:26.300Z,11.67
2023-01-25T21:16:55.600Z,13.43
2023-01-25T21:19:24.569Z,13.00
2023-01-25T21:21:51.402Z,13.03
2023-01-25T21:24:20.529Z,13.40
2023-01-25T21:26:47.476Z,13.90
2023-01-25T21:29:21.039Z,13.83
2023-01-25T21:31:52.984Z,13.87
2023-01-25T21:34:22.454Z,14.50
2023-01-25T21:36:51.513Z,14.67
2023-01-25T21:39:20.687Z,14.67
2023-01-25T21:41:47.739Z,14.87
2023-01-25T21:44:33.030Z,14.47
2023-01-25T21:47:28.821Z,14.13
2023-01-25T21:50:08.298Z,16.10
2023-01-25T21:52:36.382Z,15.03
2023-01-25T21:55:06.567Z,15.67
2023-01-25T21:57:35.921Z,14.47
2023-01-25T22:00:05.057Z,15.13
2023-01-25T22:02:34.494Z,14.90
2023-01-25T22:05:01.446Z,16.40
2023-01-25T22:07:35.029Z,14.97
2023-01-25T22:10:01.920Z,15.40
2023-01-25T22:12:28.718Z,14.67
2023-01-25T22:14:55.595Z,13.67
2023-01-25T22:17:25.684Z,15.07
2023-01-25T22:19:52.540Z,14.80
2023-01-25T22:22:19.371Z,15.70
2023-01-25T22:24:48.577Z,14.03
2023-01-25T22:27:18.078Z,14.37
2023-01-25T22:29:47.189Z,15.43
2023-01-25T22:32:14.031Z,14.17
2023-01-25T22:34:43.116Z,16.17
2023-01-25T22:37:12.005Z,13.63
2023-01-25T22:39:39.163Z,14.87
2023-01-25T22:42:06.034Z,14.47
2023-01-25T22:44:37.531Z,15.13
2023-01-25T22:47:04.375Z,15.70
2023-01-25T22:49:33.509Z,14.87
2023-01-25T22:52:00.410Z,15.27
2023-01-25T22:54:29.592Z,15.70
2023-01-25T22:56:56.504Z,17.20
2023-01-25T22:59:23.315Z,16.37
2023-01-25T23:01:57.280Z,15.30
2023-01-25T23:04:28.946Z,16.33
2023-01-25T23:07:02.701Z,16.00
2023-01-25T23:09:32.142Z,15.47
2023-01-25T23:12:03.768Z,15.13
2023-01-25T23:14:51.113Z,14.63
2023-01-25T23:17:43.656Z,14.27
2023-01-25T23:20:12.590Z,12.50
2023-01-25T23:22:39.990Z,12.57
2023-01-25T23:25:11.095Z,12.67
2023-01-25T23:27:38.269Z,12.33
2023-01-25T23:30:07.185Z,12.03
2023-01-25T23:32:34.077Z,11.37
2023-01-25T23:35:03.390Z,11.40
2023-01-25T23:37:32.809Z,11.93
2023-01-25T23:40:01.964Z,12.33
2023-01-25T23:42:31.069Z,11.03
2023-01-25T23:45:00.093Z,11.00
2023-01-25T23:47:28.932Z,10.47
2023-01-25T23:50:06.173Z,12.13
2023-01-25T23:52:33.180Z,11.17
2023-01-25T23:55:02.120Z,12.00
2023-01-25T23:57:29.296Z,10.80
2023-01-25T23:59:58.617Z,12.70
